Hampton, CT (06247)

4:36 PM EDT on August 22, 2014 (GMT -0400)
Near Route 6 | Change Station
CLOSE
Current Station
Personal Weather Station
Location: Hampton, CT
Elevation: 490 ft
Nearby Weather Stations

Elev 490 ft 41.77 °N, 72.05 °W | Updated 2 seconds ago

Overcast
Overcast
69.6 °F
Feels Like 69.6 °F
N
0.0
Wind Variable Wind from NW
Gusts 1.0 mph

Today
High -- | Low -- °F
--% Chance of Precip.
Yesterday
High -- | Low -- °F
Precip. -- in
6:03 AM 7:37 PM
Waning Crescent, 7% visible
Pressure 30.06 in
Visibility 10.0 miles
Clouds Few 2400 ft
Mostly Cloudy 7000 ft
Overcast 8000 ft
Dew Point 65 °F
Humidity 86%
Rainfall 0.00 in
Snow Depth Not available.
UV 2 out of 12
Pollen 6.00 out of 12
Ozone Good
Flu Activity Not available.
METAR KIJD 221952Z AUTO 35003KT 10SM FEW024 BKN070 OVC080 22/17 A3006 RMK AO2 SLPNO T02220167

More Conditions Fewer Conditions

Pressure 30.06 in
Visibility 10.0 miles
Clouds Few 2400 ft
Mostly Cloudy 7000 ft
Overcast 8000 ft
Dew Point 65 °F
Humidity 86%
Rainfall 0.00 in
Snow Depth Not available.
UV 2 out of 12
Pollen 6.00 out of 12
Ozone Good
Flu Activity Not available.
METAR KIJD 221952Z AUTO 35003KT 10SM FEW024 BKN070 OVC080 22/17 A3006 RMK AO2 SLPNO T02220167

More Conditions Fewer Conditions

10-Day Weather Forecast

Almanac

Astronomy

Aug. 22, 2014 Rise Set
Actual Time 6:03 AM EDT 7:37 PM EDT
Civil Twilight 5:34 AM EDT 8:06 PM EDT
Nautical Twilight 4:58 AM EDT 8:42 PM EDT
Astronomical Twilight 4:21 AM EDT 9:19 PM EDT
Moon 3:22 AM EDT 5:45 PM EDT
Length of Visible Light 14h 32m
Length of Day
13h 33m
Tomorrow will be 2m 35s shorter.
Waning Crescent, 7% of the Moon is Illuminated
Today
Waning Crescent
Aug 25
New
Sep 2
First Quarter
Sep 8
Full
Sep 15
Last Quarter

Today's Extremes

State Highs State Lows

Community

WunderPhotos

Upload Photos

1,746,240 photos uploaded!

Nearby

Air Quality

  Air Quality AQ Index Pollutant
Yesterday Good
OZONE
Current Good
OZONE
Friday Good
OZONE
Friday Good
PM2.5
Saturday Good
OZONE
Saturday Good
PM2.5
Sunday Good
OZONE
Sunday Good
PM2.5
Monday Good
OZONE
Monday Good
PM2.5

Snow Depth

Station Depth Elevation
No new snow has been reported.

Earthquake Activity

City Distance Mag. Time & Date
No recent earthquake activity has been reported nearby.
Minimum magnitude displayed is 2.5.

Coastal Water Temperatures

Place Temperature
New London, CT 70.0 °F
Newport, RI 69.1 °F
Quonset Point, RI 72.0 °F
Conimicut Light, RI 73.9 °F
Providence, RI 72.0 °F

Nearby Weather Stations